sensor_id;sensor_type;location;lat;lon;timestamp;P1;durP1;ratioP1;P2;durP2;ratioP2
70744;SDS011;59284;31.390;34.904;2023-05-19T00:01:29;13.47;;;5.73;;
70744;SDS011;59284;31.390;34.904;2023-05-19T00:03:55;13.80;;;4.95;;
70744;SDS011;59284;31.390;34.904;2023-05-19T00:06:23;11.52;;;4.05;;
70744;SDS011;59284;31.390;34.904;2023-05-19T00:08:55;11.75;;;4.60;;
70744;SDS011;59284;31.390;34.904;2023-05-19T00:11:23;14.07;;;4.28;;
70744;SDS011;59284;31.390;34.904;2023-05-19T00:13:50;11.40;;;5.07;;
70744;SDS011;59284;31.390;34.904;2023-05-19T00:16:18;12.68;;;4.72;;
70744;SDS011;59284;31.390;34.904;2023-05-19T00:18:44;21.50;;;5.05;;
70744;SDS011;59284;31.390;34.904;2023-05-19T00:21:11;19.13;;;5.63;;
70744;SDS011;59284;31.390;34.904;2023-05-19T00:23:37;12.13;;;4.37;;
70744;SDS011;59284;31.390;34.904;2023-05-19T00:26:02;13.38;;;4.93;;
70744;SDS011;59284;31.390;34.904;2023-05-19T00:28:28;16.90;;;5.70;;
70744;SDS011;59284;31.390;34.904;2023-05-19T00:30:54;13.57;;;5.10;;
70744;SDS011;59284;31.390;34.904;2023-05-19T00:33:20;13.57;;;4.87;;
70744;SDS011;59284;31.390;34.904;2023-05-19T00:35:45;13.55;;;4.88;;
70744;SDS011;59284;31.390;34.904;2023-05-19T00:38:11;14.17;;;4.33;;
70744;SDS011;59284;31.390;34.904;2023-05-19T00:40:36;15.30;;;5.68;;
70744;SDS011;59284;31.390;34.904;2023-05-19T00:43:02;14.20;;;4.20;;
70744;SDS011;59284;31.390;34.904;2023-05-19T00:45:29;13.63;;;5.10;;
70744;SDS011;59284;31.390;34.904;2023-05-19T00:47:55;13.20;;;4.27;;
70744;SDS011;59284;31.390;34.904;2023-05-19T00:50:21;18.50;;;4.50;;
70744;SDS011;59284;31.390;34.904;2023-05-19T00:52:48;16.23;;;4.47;;
70744;SDS011;59284;31.390;34.904;2023-05-19T00:55:15;15.00;;;4.20;;
70744;SDS011;59284;31.390;34.904;2023-05-19T00:57:41;15.37;;;5.27;;
70744;SDS011;59284;31.390;34.904;2023-05-19T01:00:07;13.07;;;4.40;;
70744;SDS011;59284;31.390;34.904;2023-05-19T01:02:33;14.00;;;4.28;;
70744;SDS011;59284;31.390;34.904;2023-05-19T01:04:59;13.63;;;4.20;;
70744;SDS011;59284;31.390;34.904;2023-05-19T01:07:25;16.23;;;5.30;;
70744;SDS011;59284;31.390;34.904;2023-05-19T01:09:52;17.98;;;5.82;;
70744;SDS011;59284;31.390;34.904;2023-05-19T01:12:18;15.88;;;5.18;;
70744;SDS011;59284;31.390;34.904;2023-05-19T01:14:43;14.27;;;4.87;;
70744;SDS011;59284;31.390;34.904;2023-05-19T01:31:22;19.03;;;5.07;;
70744;SDS011;59284;31.390;34.904;2023-05-19T01:33:51;13.85;;;4.57;;
70744;SDS011;59284;31.390;34.904;2023-05-19T01:36:18;14.30;;;4.93;;
70744;SDS011;59284;31.390;34.904;2023-05-19T01:38:44;19.60;;;4.80;;
70744;SDS011;59284;31.390;34.904;2023-05-19T01:41:10;16.52;;;5.15;;
70744;SDS011;59284;31.390;34.904;2023-05-19T01:43:36;12.90;;;4.60;;
70744;SDS011;59284;31.390;34.904;2023-05-19T01:46:02;17.15;;;4.88;;
70744;SDS011;59284;31.390;34.904;2023-05-19T01:48:28;13.10;;;4.93;;
70744;SDS011;59284;31.390;34.904;2023-05-19T01:50:54;15.77;;;5.05;;
70744;SDS011;59284;31.390;34.904;2023-05-19T01:53:21;14.43;;;5.13;;
70744;SDS011;59284;31.390;34.904;2023-05-19T01:55:50;10.52;;;4.45;;
70744;SDS011;59284;31.390;34.904;2023-05-19T02:04:05;13.48;;;4.35;;
70744;SDS011;59284;31.390;34.904;2023-05-19T02:09:33;16.20;;;4.15;;
70744;SDS011;59284;31.390;34.904;2023-05-19T02:12:12;11.85;;;4.55;;
70744;SDS011;59284;31.390;34.904;2023-05-19T02:17:21;12.43;;;4.45;;
70744;SDS011;59284;31.390;34.904;2023-05-19T02:19:47;15.97;;;4.17;;
70744;SDS011;59284;31.390;34.904;2023-05-19T02:22:12;12.75;;;4.53;;
70744;SDS011;59284;31.390;34.904;2023-05-19T02:24:38;17.13;;;4.53;;
70744;SDS011;59284;31.390;34.904;2023-05-19T02:27:05;17.42;;;4.72;;
70744;SDS011;59284;31.390;34.904;2023-05-19T02:31:57;14.13;;;5.27;;
70744;SDS011;59284;31.390;34.904;2023-05-19T02:34:22;13.32;;;4.70;;
70744;SDS011;59284;31.390;34.904;2023-05-19T02:36:48;10.93;;;4.20;;
70744;SDS011;59284;31.390;34.904;2023-05-19T02:39:14;15.48;;;4.22;;
70744;SDS011;59284;31.390;34.904;2023-05-19T02:41:40;18.30;;;4.40;;
70744;SDS011;59284;31.390;34.904;2023-05-19T02:44:06;10.73;;;4.30;;
70744;SDS011;59284;31.390;34.904;2023-05-19T02:46:31;12.32;;;4.18;;
70744;SDS011;59284;31.390;34.904;2023-05-19T02:48:57;18.63;;;4.82;;
70744;SDS011;59284;31.390;34.904;2023-05-19T02:51:23;15.27;;;4.37;;
70744;SDS011;59284;31.390;34.904;2023-05-19T02:53:49;13.70;;;4.63;;
70744;SDS011;59284;31.390;34.904;2023-05-19T02:56:15;15.23;;;4.50;;
70744;SDS011;59284;31.390;34.904;2023-05-19T02:58:40;11.32;;;4.70;;
70744;SDS011;59284;31.390;34.904;2023-05-19T03:01:07;15.35;;;5.70;;
70744;SDS011;59284;31.390;34.904;2023-05-19T03:03:33;19.37;;;6.10;;
70744;SDS011;59284;31.390;34.904;2023-05-19T03:05:59;19.45;;;4.72;;
70744;SDS011;59284;31.390;34.904;2023-05-19T03:08:26;13.73;;;4.43;;
70744;SDS011;59284;31.390;34.904;2023-05-19T03:10:52;10.65;;;4.72;;
70744;SDS011;59284;31.390;34.904;2023-05-19T03:13:17;9.83;;;4.60;;
70744;SDS011;59284;31.390;34.904;2023-05-19T03:15:43;18.05;;;4.75;;
70744;SDS011;59284;31.390;34.904;2023-05-19T03:18:09;15.47;;;4.53;;
70744;SDS011;59284;31.390;34.904;2023-05-19T03:20:36;13.50;;;4.60;;
70744;SDS011;59284;31.390;34.904;2023-05-19T03:23:02;16.97;;;4.40;;
70744;SDS011;59284;31.390;34.904;2023-05-19T03:25:28;15.35;;;5.70;;
70744;SDS011;59284;31.390;34.904;2023-05-19T03:27:54;14.68;;;4.78;;
70744;SDS011;59284;31.390;34.904;2023-05-19T03:30:20;19.20;;;5.00;;
70744;SDS011;59284;31.390;34.904;2023-05-19T03:32:46;16.85;;;4.03;;
70744;SDS011;59284;31.390;34.904;2023-05-19T03:35:11;18.13;;;5.13;;
70744;SDS011;59284;31.390;34.904;2023-05-19T03:37:37;25.80;;;4.97;;
70744;SDS011;59284;31.390;34.904;2023-05-19T03:40:03;24.13;;;5.63;;
70744;SDS011;59284;31.390;34.904;2023-05-19T03:42:30;12.27;;;4.43;;
70744;SDS011;59284;31.390;34.904;2023-05-19T03:44:55;11.90;;;4.38;;
70744;SDS011;59284;31.390;34.904;2023-05-19T03:47:21;17.65;;;5.43;;
70744;SDS011;59284;31.390;34.904;2023-05-19T03:49:47;13.47;;;4.30;;
70744;SDS011;59284;31.390;34.904;2023-05-19T03:52:12;12.77;;;5.03;;
70744;SDS011;59284;31.390;34.904;2023-05-19T03:54:38;16.07;;;4.70;;
70744;SDS011;59284;31.390;34.904;2023-05-19T03:57:06;12.63;;;4.60;;
70744;SDS011;59284;31.390;34.904;2023-05-19T03:59:31;15.17;;;5.90;;
70744;SDS011;59284;31.390;34.904;2023-05-19T04:01:57;18.58;;;4.85;;
70744;SDS011;59284;31.390;34.904;2023-05-19T04:04:22;13.23;;;3.90;;
70744;SDS011;59284;31.390;34.904;2023-05-19T04:06:48;15.25;;;5.35;;
70744;SDS011;59284;31.390;34.904;2023-05-19T04:09:14;11.80;;;4.07;;
70744;SDS011;59284;31.390;34.904;2023-05-19T04:11:41;10.07;;;3.85;;
70744;SDS011;59284;31.390;34.904;2023-05-19T04:14:07;17.48;;;4.20;;
70744;SDS011;59284;31.390;34.904;2023-05-19T04:16:33;13.27;;;3.83;;
70744;SDS011;59284;31.390;34.904;2023-05-19T04:18:59;14.40;;;4.55;;
70744;SDS011;59284;31.390;34.904;2023-05-19T04:21:25;12.70;;;4.70;;
70744;SDS011;59284;31.390;34.904;2023-05-19T04:23:51;18.02;;;4.57;;
70744;SDS011;59284;31.390;34.904;2023-05-19T04:26:17;15.93;;;3.80;;
70744;SDS011;59284;31.390;34.904;2023-05-19T04:28:45;16.92;;;4.10;;
70744;SDS011;59284;31.390;34.904;2023-05-19T04:31:15;9.88;;;3.75;;
70744;SDS011;59284;31.390;34.904;2023-05-19T04:33:40;13.52;;;4.80;;
70744;SDS011;59284;31.390;34.904;2023-05-19T04:36:06;13.70;;;4.13;;
70744;SDS011;59284;31.390;34.904;2023-05-19T04:38:34;19.33;;;4.95;;
70744;SDS011;59284;31.390;34.904;2023-05-19T04:41:01;12.70;;;3.72;;
70744;SDS011;59284;31.390;34.904;2023-05-19T04:43:30;12.23;;;4.70;;
70744;SDS011;59284;31.390;34.904;2023-05-19T04:45:56;14.40;;;4.97;;
70744;SDS011;59284;31.390;34.904;2023-05-19T04:48:22;13.15;;;4.20;;
70744;SDS011;59284;31.390;34.904;2023-05-19T04:50:48;14.93;;;4.97;;
70744;SDS011;59284;31.390;34.904;2023-05-19T04:53:15;15.17;;;4.73;;
70744;SDS011;59284;31.390;34.904;2023-05-19T04:55:43;10.35;;;4.80;;
70744;SDS011;59284;31.390;34.904;2023-05-19T04:58:09;13.00;;;4.03;;
70744;SDS011;59284;31.390;34.904;2023-05-19T05:00:38;12.40;;;3.90;;
70744;SDS011;59284;31.390;34.904;2023-05-19T05:03:03;12.35;;;4.10;;
70744;SDS011;59284;31.390;34.904;2023-05-19T05:05:31;15.60;;;4.23;;
70744;SDS011;59284;31.390;34.904;2023-05-19T05:07:57;12.52;;;4.18;;
70744;SDS011;59284;31.390;34.904;2023-05-19T05:10:22;11.50;;;3.50;;
70744;SDS011;59284;31.390;34.904;2023-05-19T05:12:48;10.40;;;3.30;;
70744;SDS011;59284;31.390;34.904;2023-05-19T05:15:14;10.17;;;3.70;;
70744;SDS011;59284;31.390;34.904;2023-05-19T05:17:40;9.68;;;3.33;;
70744;SDS011;59284;31.390;34.904;2023-05-19T05:20:07;15.20;;;3.85;;
70744;SDS011;59284;31.390;34.904;2023-05-19T05:22:34;10.82;;;3.13;;
70744;SDS011;59284;31.390;34.904;2023-05-19T05:25:00;7.43;;;2.72;;
70744;SDS011;59284;31.390;34.904;2023-05-19T05:27:26;7.00;;;2.97;;
70744;SDS011;59284;31.390;34.904;2023-05-19T05:29:52;11.10;;;3.63;;
70744;SDS011;59284;31.390;34.904;2023-05-19T05:32:18;8.07;;;3.15;;
70744;SDS011;59284;31.390;34.904;2023-05-19T05:34:43;9.40;;;3.20;;
70744;SDS011;59284;31.390;34.904;2023-05-19T05:37:09;11.25;;;3.35;;
70744;SDS011;59284;31.390;34.904;2023-05-19T05:39:35;10.52;;;2.95;;
70744;SDS011;59284;31.390;34.904;2023-05-19T05:42:01;8.40;;;3.07;;
70744;SDS011;59284;31.390;34.904;2023-05-19T05:44:26;9.77;;;3.10;;
70744;SDS011;59284;31.390;34.904;2023-05-19T05:46:52;11.27;;;3.40;;
70744;SDS011;59284;31.390;34.904;2023-05-19T05:49:18;14.02;;;3.30;;
70744;SDS011;59284;31.390;34.904;2023-05-19T05:51:44;12.03;;;3.97;;
70744;SDS011;59284;31.390;34.904;2023-05-19T05:54:10;11.18;;;3.20;;
70744;SDS011;59284;31.390;34.904;2023-05-19T05:56:36;11.95;;;3.60;;
70744;SDS011;59284;31.390;34.904;2023-05-19T05:59:02;10.83;;;3.27;;
70744;SDS011;59284;31.390;34.904;2023-05-19T06:01:28;8.63;;;3.07;;
70744;SDS011;59284;31.390;34.904;2023-05-19T06:03:57;8.20;;;2.67;;
70744;SDS011;59284;31.390;34.904;2023-05-19T06:06:22;11.47;;;3.83;;
70744;SDS011;59284;31.390;34.904;2023-05-19T06:08:48;7.20;;;2.53;;
70744;SDS011;59284;31.390;34.904;2023-05-19T06:11:14;17.63;;;3.77;;
70744;SDS011;59284;31.390;34.904;2023-05-19T06:13:39;7.43;;;2.65;;
70744;SDS011;59284;31.390;34.904;2023-05-19T06:16:05;11.53;;;3.10;;
70744;SDS011;59284;31.390;34.904;2023-05-19T06:18:31;12.43;;;3.03;;
70744;SDS011;59284;31.390;34.904;2023-05-19T06:20:57;9.57;;;2.60;;
70744;SDS011;59284;31.390;34.904;2023-05-19T06:23:22;4.40;;;1.93;;
70744;SDS011;59284;31.390;34.904;2023-05-19T06:25:49;14.77;;;3.38;;
70744;SDS011;59284;31.390;34.904;2023-05-19T06:28:15;9.40;;;3.73;;
70744;SDS011;59284;31.390;34.904;2023-05-19T06:30:40;9.50;;;3.10;;
70744;SDS011;59284;31.390;34.904;2023-05-19T06:33:06;16.33;;;3.47;;
70744;SDS011;59284;31.390;34.904;2023-05-19T06:35:32;10.23;;;2.97;;
70744;SDS011;59284;31.390;34.904;2023-05-19T06:37:57;11.00;;;3.63;;
70744;SDS011;59284;31.390;34.904;2023-05-19T06:40:23;11.07;;;3.53;;
70744;SDS011;59284;31.390;34.904;2023-05-19T06:42:49;10.68;;;3.83;;
70744;SDS011;59284;31.390;34.904;2023-05-19T06:45:14;12.27;;;2.80;;
70744;SDS011;59284;31.390;34.904;2023-05-19T06:47:40;10.13;;;3.23;;
70744;SDS011;59284;31.390;34.904;2023-05-19T06:50:09;12.33;;;3.20;;
70744;SDS011;59284;31.390;34.904;2023-05-19T06:52:35;11.30;;;3.00;;
70744;SDS011;59284;31.390;34.904;2023-05-19T06:55:02;7.93;;;3.10;;
70744;SDS011;59284;31.390;34.904;2023-05-19T06:57:27;9.32;;;2.92;;
70744;SDS011;59284;31.390;34.904;2023-05-19T06:59:53;10.83;;;2.93;;
70744;SDS011;59284;31.390;34.904;2023-05-19T07:02:18;11.60;;;3.70;;
70744;SDS011;59284;31.390;34.904;2023-05-19T07:04:44;10.75;;;2.78;;
70744;SDS011;59284;31.390;34.904;2023-05-19T07:07:10;11.30;;;2.87;;
70744;SDS011;59284;31.390;34.904;2023-05-19T07:09:35;11.27;;;3.25;;
70744;SDS011;59284;31.390;34.904;2023-05-19T07:12:01;11.23;;;3.60;;
70744;SDS011;59284;31.390;34.904;2023-05-19T07:14:26;11.82;;;4.00;;
70744;SDS011;59284;31.390;34.904;2023-05-19T07:16:52;12.03;;;3.93;;
70744;SDS011;59284;31.390;34.904;2023-05-19T07:19:18;14.60;;;3.60;;
70744;SDS011;59284;31.390;34.904;2023-05-19T07:21:44;11.20;;;3.75;;
70744;SDS011;59284;31.390;34.904;2023-05-19T07:24:10;14.23;;;4.15;;
70744;SDS011;59284;31.390;34.904;2023-05-19T07:26:36;15.23;;;3.53;;
70744;SDS011;59284;31.390;34.904;2023-05-19T07:29:01;14.90;;;4.30;;
70744;SDS011;59284;31.390;34.904;2023-05-19T07:31:27;11.00;;;3.27;;
70744;SDS011;59284;31.390;34.904;2023-05-19T07:33:52;11.77;;;3.90;;
70744;SDS011;59284;31.390;34.904;2023-05-19T07:36:18;12.50;;;4.25;;
70744;SDS011;59284;31.390;34.904;2023-05-19T07:38:47;14.77;;;5.07;;
70744;SDS011;59284;31.390;34.904;2023-05-19T07:41:13;15.43;;;3.95;;
70744;SDS011;59284;31.390;34.904;2023-05-19T07:43:38;7.25;;;3.25;;
70744;SDS011;59284;31.390;34.904;2023-05-19T07:46:05;15.75;;;3.42;;
70744;SDS011;59284;31.390;34.904;2023-05-19T07:48:30;13.90;;;3.73;;
70744;SDS011;59284;31.390;34.904;2023-05-19T07:50:56;13.13;;;3.65;;
70744;SDS011;59284;31.390;34.904;2023-05-19T07:53:22;10.90;;;3.47;;
70744;SDS011;59284;31.390;34.904;2023-05-19T07:55:47;12.80;;;3.65;;
70744;SDS011;59284;31.390;34.904;2023-05-19T07:58:13;13.10;;;4.53;;
70744;SDS011;59284;31.390;34.904;2023-05-19T08:00:39;8.70;;;3.47;;
70744;SDS011;59284;31.390;34.904;2023-05-19T08:03:09;12.18;;;3.72;;
70744;SDS011;59284;31.390;34.904;2023-05-19T08:05:36;15.43;;;3.65;;
70744;SDS011;59284;31.390;34.904;2023-05-19T08:08:02;9.30;;;3.40;;
70744;SDS011;59284;31.390;34.904;2023-05-19T08:10:28;11.10;;;3.28;;
70744;SDS011;59284;31.390;34.904;2023-05-19T08:12:53;13.93;;;4.30;;
70744;SDS011;59284;31.390;34.904;2023-05-19T08:15:19;11.53;;;3.23;;
70744;SDS011;59284;31.390;34.904;2023-05-19T08:17:45;7.67;;;2.70;;
70744;SDS011;59284;31.390;34.904;2023-05-19T08:20:10;11.65;;;3.28;;
70744;SDS011;59284;31.390;34.904;2023-05-19T08:22:36;9.07;;;3.57;;
70744;SDS011;59284;31.390;34.904;2023-05-19T08:25:02;16.45;;;3.72;;
70744;SDS011;59284;31.390;34.904;2023-05-19T08:27:29;13.15;;;3.72;;
70744;SDS011;59284;31.390;34.904;2023-05-19T08:29:55;7.80;;;2.88;;
70744;SDS011;59284;31.390;34.904;2023-05-19T08:32:21;12.07;;;3.60;;
70744;SDS011;59284;31.390;34.904;2023-05-19T08:34:47;12.63;;;4.20;;
70744;SDS011;59284;31.390;34.904;2023-05-19T08:37:13;9.90;;;3.70;;
70744;SDS011;59284;31.390;34.904;2023-05-19T08:39:39;9.35;;;3.42;;
70744;SDS011;59284;31.390;34.904;2023-05-19T08:42:05;10.43;;;3.23;;
70744;SDS011;59284;31.390;34.904;2023-05-19T08:44:32;18.20;;;4.47;;
70744;SDS011;59284;31.390;34.904;2023-05-19T08:47:02;11.70;;;4.25;;
70744;SDS011;59284;31.390;34.904;2023-05-19T08:49:42;15.43;;;4.07;;
70744;SDS011;59284;31.390;34.904;2023-05-19T08:54:45;12.00;;;4.05;;
70744;SDS011;59284;31.390;34.904;2023-05-19T08:57:14;11.02;;;4.60;;
70744;SDS011;59284;31.390;34.904;2023-05-19T08:59:40;9.60;;;3.03;;
70744;SDS011;59284;31.390;34.904;2023-05-19T09:02:07;11.68;;;4.28;;
70744;SDS011;59284;31.390;34.904;2023-05-19T09:04:36;14.23;;;4.70;;
70744;SDS011;59284;31.390;34.904;2023-05-19T09:07:04;16.23;;;4.90;;
70744;SDS011;59284;31.390;34.904;2023-05-19T09:09:30;12.50;;;5.73;;
70744;SDS011;59284;31.390;34.904;2023-05-19T09:11:56;13.43;;;5.82;;
70744;SDS011;59284;31.390;34.904;2023-05-19T09:14:22;11.27;;;4.75;;
70744;SDS011;59284;31.390;34.904;2023-05-19T09:16:48;14.30;;;6.50;;
70744;SDS011;59284;31.390;34.904;2023-05-19T09:19:16;10.75;;;5.65;;
70744;SDS011;59284;31.390;34.904;2023-05-19T09:21:42;10.63;;;5.30;;
70744;SDS011;59284;31.390;34.904;2023-05-19T09:24:09;11.43;;;5.38;;
70744;SDS011;59284;31.390;34.904;2023-05-19T09:26:38;10.03;;;5.17;;
70744;SDS011;59284;31.390;34.904;2023-05-19T09:29:14;12.68;;;5.10;;
70744;SDS011;59284;31.390;34.904;2023-05-19T09:31:50;12.88;;;5.10;;
70744;SDS011;59284;31.390;34.904;2023-05-19T09:34:17;12.87;;;5.40;;
70744;SDS011;59284;31.390;34.904;2023-05-19T09:36:45;13.45;;;4.05;;
70744;SDS011;59284;31.390;34.904;2023-05-19T09:39:17;14.27;;;4.47;;
70744;SDS011;59284;31.390;34.904;2023-05-19T09:41:43;9.55;;;4.38;;
70744;SDS011;59284;31.390;34.904;2023-05-19T09:44:30;10.93;;;4.72;;
70744;SDS011;59284;31.390;34.904;2023-05-19T09:46:56;10.80;;;3.83;;
70744;SDS011;59284;31.390;34.904;2023-05-19T09:49:25;10.73;;;4.18;;
70744;SDS011;59284;31.390;34.904;2023-05-19T09:51:57;12.73;;;5.20;;
70744;SDS011;59284;31.390;34.904;2023-05-19T09:54:23;10.32;;;3.65;;
70744;SDS011;59284;31.390;34.904;2023-05-19T09:56:59;11.63;;;4.57;;
70744;SDS011;59284;31.390;34.904;2023-05-19T09:59:25;8.47;;;3.67;;
70744;SDS011;59284;31.390;34.904;2023-05-19T10:01:55;9.82;;;3.33;;
70744;SDS011;59284;31.390;34.904;2023-05-19T10:04:22;10.43;;;3.92;;
70744;SDS011;59284;31.390;34.904;2023-05-19T10:06:49;14.40;;;3.70;;
70744;SDS011;59284;31.390;34.904;2023-05-19T10:09:26;13.05;;;3.65;;
70744;SDS011;59284;31.390;34.904;2023-05-19T10:11:56;8.20;;;3.47;;
70744;SDS011;59284;31.390;34.904;2023-05-19T10:14:24;8.27;;;3.08;;
70744;SDS011;59284;31.390;34.904;2023-05-19T10:16:53;8.20;;;3.30;;
70744;SDS011;59284;31.390;34.904;2023-05-19T10:19:23;16.85;;;3.70;;
70744;SDS011;59284;31.390;34.904;2023-05-19T10:21:50;10.90;;;3.03;;
70744;SDS011;59284;31.390;34.904;2023-05-19T10:24:16;8.53;;;3.17;;
70744;SDS011;59284;31.390;34.904;2023-05-19T10:27:01;8.25;;;2.85;;
70744;SDS011;59284;31.390;34.904;2023-05-19T10:29:33;10.25;;;3.55;;
70744;SDS011;59284;31.390;34.904;2023-05-19T10:32:13;10.73;;;3.20;;
70744;SDS011;59284;31.390;34.904;2023-05-19T10:37:37;12.23;;;3.20;;
70744;SDS011;59284;31.390;34.904;2023-05-19T10:45:50;6.82;;;2.95;;
70744;SDS011;59284;31.390;34.904;2023-05-19T10:48:18;5.15;;;2.25;;
70744;SDS011;59284;31.390;34.904;2023-05-19T10:50:45;7.93;;;2.43;;
70744;SDS011;59284;31.390;34.904;2023-05-19T10:53:15;9.27;;;2.53;;
70744;SDS011;59284;31.390;34.904;2023-05-19T10:55:52;12.13;;;3.15;;
70744;SDS011;59284;31.390;34.904;2023-05-19T11:08:52;6.95;;;2.67;;
70744;SDS011;59284;31.390;34.904;2023-05-19T11:11:42;7.35;;;2.08;;
70744;SDS011;59284;31.390;34.904;2023-05-19T11:14:13;8.45;;;2.42;;
70744;SDS011;59284;31.390;34.904;2023-05-19T11:16:44;7.27;;;2.60;;
70744;SDS011;59284;31.390;34.904;2023-05-19T11:21:47;6.95;;;3.08;;
70744;SDS011;59284;31.390;34.904;2023-05-19T11:29:57;5.80;;;2.40;;
70744;SDS011;59284;31.390;34.904;2023-05-19T11:32:29;8.20;;;2.50;;
70744;SDS011;59284;31.390;34.904;2023-05-19T11:34:57;8.60;;;2.88;;
70744;SDS011;59284;31.390;34.904;2023-05-19T11:37:24;7.13;;;2.63;;
70744;SDS011;59284;31.390;34.904;2023-05-19T11:39:50;9.90;;;3.28;;
70744;SDS011;59284;31.390;34.904;2023-05-19T11:42:16;10.07;;;2.83;;
70744;SDS011;59284;31.390;34.904;2023-05-19T11:44:43;8.68;;;2.67;;
70744;SDS011;59284;31.390;34.904;2023-05-19T11:47:10;9.18;;;2.63;;
70744;SDS011;59284;31.390;34.904;2023-05-19T11:49:37;10.48;;;2.65;;
70744;SDS011;59284;31.390;34.904;2023-05-19T11:52:03;12.77;;;2.67;;
70744;SDS011;59284;31.390;34.904;2023-05-19T11:54:29;7.38;;;2.90;;
70744;SDS011;59284;31.390;34.904;2023-05-19T11:57:00;6.93;;;2.30;;
70744;SDS011;59284;31.390;34.904;2023-05-19T11:59:33;6.63;;;2.80;;
70744;SDS011;59284;31.390;34.904;2023-05-19T12:02:18;8.37;;;2.20;;
70744;SDS011;59284;31.390;34.904;2023-05-19T12:04:48;9.57;;;3.08;;
70744;SDS011;59284;31.390;34.904;2023-05-19T12:07:15;10.23;;;2.85;;
70744;SDS011;59284;31.390;34.904;2023-05-19T12:09:44;8.10;;;3.10;;
70744;SDS011;59284;31.390;34.904;2023-05-19T12:12:17;8.77;;;2.97;;
70744;SDS011;59284;31.390;34.904;2023-05-19T12:14:48;8.30;;;2.60;;
70744;SDS011;59284;31.390;34.904;2023-05-19T12:17:16;7.93;;;2.70;;
70744;SDS011;59284;31.390;34.904;2023-05-19T12:19:44;9.45;;;2.78;;
70744;SDS011;59284;31.390;34.904;2023-05-19T12:22:11;6.28;;;2.38;;
70744;SDS011;59284;31.390;34.904;2023-05-19T12:24:37;7.97;;;2.33;;
70744;SDS011;59284;31.390;34.904;2023-05-19T12:27:04;9.13;;;2.90;;
70744;SDS011;59284;31.390;34.904;2023-05-19T12:29:31;7.55;;;2.58;;
70744;SDS011;59284;31.390;34.904;2023-05-19T12:31:57;7.50;;;2.80;;
70744;SDS011;59284;31.390;34.904;2023-05-19T12:34:22;12.90;;;2.60;;
70744;SDS011;59284;31.390;34.904;2023-05-19T12:36:49;7.05;;;2.50;;
70744;SDS011;59284;31.390;34.904;2023-05-19T12:39:15;8.10;;;2.83;;
70744;SDS011;59284;31.390;34.904;2023-05-19T12:41:43;9.05;;;2.33;;
70744;SDS011;59284;31.390;34.904;2023-05-19T12:44:15;6.43;;;2.28;;
70744;SDS011;59284;31.390;34.904;2023-05-19T12:46:42;9.02;;;2.90;;
70744;SDS011;59284;31.390;34.904;2023-05-19T12:49:08;7.17;;;2.83;;
70744;SDS011;59284;31.390;34.904;2023-05-19T12:51:34;8.15;;;2.50;;
70744;SDS011;59284;31.390;34.904;2023-05-19T12:54:01;5.97;;;2.80;;
70744;SDS011;59284;31.390;34.904;2023-05-19T12:56:28;6.85;;;2.10;;
70744;SDS011;59284;31.390;34.904;2023-05-19T12:58:54;8.97;;;2.37;;
70744;SDS011;59284;31.390;34.904;2023-05-19T13:01:19;8.90;;;1.95;;
70744;SDS011;59284;31.390;34.904;2023-05-19T13:03:46;7.30;;;2.27;;
70744;SDS011;59284;31.390;34.904;2023-05-19T13:06:12;8.18;;;2.15;;
70744;SDS011;59284;31.390;34.904;2023-05-19T13:08:39;11.88;;;2.85;;
70744;SDS011;59284;31.390;34.904;2023-05-19T13:11:05;11.20;;;2.70;;
70744;SDS011;59284;31.390;34.904;2023-05-19T13:13:31;6.25;;;2.65;;
70744;SDS011;59284;31.390;34.904;2023-05-19T13:15:57;7.43;;;2.65;;
70744;SDS011;59284;31.390;34.904;2023-05-19T13:18:22;6.83;;;2.47;;
70744;SDS011;59284;31.390;34.904;2023-05-19T13:20:48;7.47;;;2.60;;
70744;SDS011;59284;31.390;34.904;2023-05-19T13:23:15;7.53;;;2.33;;
70744;SDS011;59284;31.390;34.904;2023-05-19T13:25:41;9.05;;;2.42;;
70744;SDS011;59284;31.390;34.904;2023-05-19T13:28:07;11.35;;;3.05;;
70744;SDS011;59284;31.390;34.904;2023-05-19T13:30:34;9.65;;;2.63;;
70744;SDS011;59284;31.390;34.904;2023-05-19T13:33:00;9.60;;;2.60;;
70744;SDS011;59284;31.390;34.904;2023-05-19T13:35:26;7.50;;;2.60;;
70744;SDS011;59284;31.390;34.904;2023-05-19T13:37:52;9.10;;;2.50;;
70744;SDS011;59284;31.390;34.904;2023-05-19T13:40:17;6.53;;;2.13;;
70744;SDS011;59284;31.390;34.904;2023-05-19T13:42:43;9.15;;;2.75;;
70744;SDS011;59284;31.390;34.904;2023-05-19T13:45:09;7.10;;;2.30;;
70744;SDS011;59284;31.390;34.904;2023-05-19T13:47:36;8.93;;;2.83;;
70744;SDS011;59284;31.390;34.904;2023-05-19T13:50:02;10.43;;;2.50;;
70744;SDS011;59284;31.390;34.904;2023-05-19T13:52:29;8.38;;;2.33;;
70744;SDS011;59284;31.390;34.904;2023-05-19T13:54:54;7.72;;;2.50;;
70744;SDS011;59284;31.390;34.904;2023-05-19T13:57:21;7.22;;;2.40;;
70744;SDS011;59284;31.390;34.904;2023-05-19T13:59:47;6.17;;;2.30;;
70744;SDS011;59284;31.390;34.904;2023-05-19T14:02:16;7.95;;;2.17;;
70744;SDS011;59284;31.390;34.904;2023-05-19T14:04:42;11.20;;;2.63;;
70744;SDS011;59284;31.390;34.904;2023-05-19T14:07:08;8.90;;;2.50;;
70744;SDS011;59284;31.390;34.904;2023-05-19T14:09:34;5.88;;;1.92;;
70744;SDS011;59284;31.390;34.904;2023-05-19T14:12:00;5.38;;;1.98;;
70744;SDS011;59284;31.390;34.904;2023-05-19T14:14:25;5.90;;;1.80;;
70744;SDS011;59284;31.390;34.904;2023-05-19T14:16:51;6.67;;;2.67;;
70744;SDS011;59284;31.390;34.904;2023-05-19T14:19:16;6.57;;;2.47;;
70744;SDS011;59284;31.390;34.904;2023-05-19T14:21:42;7.63;;;1.93;;
70744;SDS011;59284;31.390;34.904;2023-05-19T14:24:08;6.63;;;2.22;;
70744;SDS011;59284;31.390;34.904;2023-05-19T14:26:33;8.20;;;2.17;;
70744;SDS011;59284;31.390;34.904;2023-05-19T14:28:59;5.95;;;2.15;;
70744;SDS011;59284;31.390;34.904;2023-05-19T14:31:25;7.33;;;2.37;;
70744;SDS011;59284;31.390;34.904;2023-05-19T14:33:51;6.43;;;2.40;;
70744;SDS011;59284;31.390;34.904;2023-05-19T14:36:17;8.75;;;2.55;;
70744;SDS011;59284;31.390;34.904;2023-05-19T14:38:43;6.27;;;2.30;;
70744;SDS011;59284;31.390;34.904;2023-05-19T14:41:08;8.70;;;2.70;;
70744;SDS011;59284;31.390;34.904;2023-05-19T14:43:34;7.33;;;2.00;;
70744;SDS011;59284;31.390;34.904;2023-05-19T14:46:00;8.15;;;2.75;;
70744;SDS011;59284;31.390;34.904;2023-05-19T14:48:25;7.17;;;2.40;;
70744;SDS011;59284;31.390;34.904;2023-05-19T14:50:51;9.82;;;2.30;;
70744;SDS011;59284;31.390;34.904;2023-05-19T14:53:17;8.73;;;2.40;;
70744;SDS011;59284;31.390;34.904;2023-05-19T14:55:42;8.10;;;2.42;;
70744;SDS011;59284;31.390;34.904;2023-05-19T14:58:08;9.03;;;2.73;;
70744;SDS011;59284;31.390;34.904;2023-05-19T15:00:34;7.70;;;2.17;;
70744;SDS011;59284;31.390;34.904;2023-05-19T15:02:59;4.90;;;2.37;;
70744;SDS011;59284;31.390;34.904;2023-05-19T15:05:25;8.80;;;2.20;;
70744;SDS011;59284;31.390;34.904;2023-05-19T15:07:50;9.30;;;2.40;;
70744;SDS011;59284;31.390;34.904;2023-05-19T15:10:16;12.38;;;3.53;;
70744;SDS011;59284;31.390;34.904;2023-05-19T15:12:44;5.60;;;2.37;;
70744;SDS011;59284;31.390;34.904;2023-05-19T15:15:10;8.57;;;2.60;;
70744;SDS011;59284;31.390;34.904;2023-05-19T15:17:36;6.95;;;2.75;;
70744;SDS011;59284;31.390;34.904;2023-05-19T15:20:02;9.60;;;2.40;;
70744;SDS011;59284;31.390;34.904;2023-05-19T15:22:27;7.28;;;2.70;;